createdAt,value
2023-05-19T00:00:00.985Z,1.25
2023-05-19T00:02:35.614Z,1.67
2023-05-19T00:05:10.892Z,1.92
2023-05-19T00:07:44.329Z,1.27
2023-05-19T00:10:20.202Z,1.33
2023-05-19T00:12:53.890Z,1.70
2023-05-19T00:15:27.815Z,1.40
2023-05-19T00:18:00.486Z,1.83
2023-05-19T00:20:34.001Z,1.45
2023-05-19T00:23:06.885Z,1.75
2023-05-19T00:25:41.256Z,1.63
2023-05-19T00:28:13.746Z,1.83
2023-05-19T00:30:47.658Z,1.38
2023-05-19T00:33:20.241Z,1.70
2023-05-19T00:35:53.405Z,1.55
2023-05-19T00:38:26.014Z,1.88
2023-05-19T00:41:01.696Z,1.47
2023-05-19T00:43:37.003Z,1.25
2023-05-19T00:46:11.529Z,2.00
2023-05-19T00:48:45.658Z,1.85
2023-05-19T00:51:19.311Z,1.52
2023-05-19T00:53:52.332Z,1.73
2023-05-19T00:56:27.889Z,1.50
2023-05-19T00:59:01.682Z,1.88
2023-05-19T01:01:34.914Z,1.50
2023-05-19T01:04:10.764Z,1.70
2023-05-19T01:06:44.352Z,1.30
2023-05-19T01:09:17.693Z,1.58
2023-05-19T01:11:52.203Z,1.70
2023-05-19T01:14:24.878Z,2.38
2023-05-19T01:17:07.573Z,1.55
2023-05-19T01:19:54.180Z,1.73
2023-05-19T01:22:46.937Z,1.42
2023-05-19T01:25:52.133Z,1.42
2023-05-19T01:28:52.239Z,1.30
2023-05-19T01:31:27.159Z,1.40
2023-05-19T01:34:01.815Z,1.10
2023-05-19T01:36:34.630Z,1.38
2023-05-19T01:39:08.597Z,1.90
2023-05-19T01:41:42.180Z,1.63
2023-05-19T01:44:16.731Z,1.90
2023-05-19T01:46:52.815Z,1.10
2023-05-19T01:49:25.383Z,1.85
2023-05-19T01:52:00.081Z,1.45
2023-05-19T01:54:33.142Z,1.98
2023-05-19T01:57:16.064Z,1.73
2023-05-19T01:59:58.045Z,1.90
2023-05-19T02:02:42.237Z,1.48
2023-05-19T02:05:29.886Z,1.73
2023-05-19T02:08:11.593Z,1.23
2023-05-19T02:10:50.922Z,1.70
2023-05-19T02:13:29.974Z,2.10
2023-05-19T02:16:06.426Z,1.63
2023-05-19T02:18:45.741Z,1.20
2023-05-19T02:21:18.843Z,1.73
2023-05-19T02:23:51.906Z,1.90
2023-05-19T02:26:26.525Z,1.43
2023-05-19T02:28:59.441Z,1.80
2023-05-19T02:31:32.290Z,1.52
2023-05-19T02:34:06.453Z,1.60
2023-05-19T02:36:41.506Z,2.00
2023-05-19T02:39:14.749Z,1.67
2023-05-19T02:41:47.783Z,1.92
2023-05-19T02:44:20.600Z,1.45
2023-05-19T02:46:53.863Z,1.20
2023-05-19T02:49:31.229Z,1.50
2023-05-19T02:52:04.713Z,1.50
2023-05-19T02:54:38.070Z,1.40
2023-05-19T02:57:11.535Z,1.77
2023-05-19T02:59:44.623Z,1.23
2023-05-19T03:02:17.721Z,1.10
2023-05-19T03:04:51.972Z,1.30
2023-05-19T03:07:25.674Z,1.05
2023-05-19T03:09:58.279Z,1.63
2023-05-19T03:12:32.178Z,1.15
2023-05-19T03:15:05.498Z,1.13
2023-05-19T03:17:39.886Z,1.27
2023-05-19T03:20:15.975Z,1.13
2023-05-19T03:22:49.134Z,1.42
2023-05-19T03:25:22.444Z,0.82
2023-05-19T03:27:55.470Z,1.40
2023-05-19T03:30:28.312Z,0.90
2023-05-19T03:33:13.116Z,1.23
2023-05-19T03:35:48.040Z,1.10
2023-05-19T03:38:21.500Z,0.77
2023-05-19T03:41:02.295Z,1.13
2023-05-19T03:43:35.833Z,0.83
2023-05-19T03:46:11.024Z,0.82
2023-05-19T03:49:22.500Z,0.88
2023-05-19T03:52:09.879Z,1.08
2023-05-19T03:55:01.489Z,0.57
2023-05-19T03:57:36.388Z,0.97
2023-05-19T04:00:13.627Z,1.13
2023-05-19T04:02:46.453Z,0.85
2023-05-19T04:05:20.113Z,0.98
2023-05-19T04:07:54.335Z,0.80
2023-05-19T04:10:26.911Z,0.70
2023-05-19T04:13:01.089Z,1.20
2023-05-19T04:15:33.927Z,0.85
2023-05-19T04:18:06.900Z,0.82
2023-05-19T04:20:39.810Z,0.70
2023-05-19T04:23:14.358Z,0.57
2023-05-19T04:25:48.824Z,0.93
2023-05-19T04:28:22.196Z,0.80
2023-05-19T04:30:55.145Z,0.75
2023-05-19T04:33:29.662Z,0.50
2023-05-19T04:36:06.276Z,0.60
2023-05-19T04:38:40.538Z,0.80
2023-05-19T04:41:16.777Z,1.00
2023-05-19T04:43:50.227Z,0.90
2023-05-19T04:46:25.153Z,1.08
2023-05-19T04:49:01.460Z,0.50
2023-05-19T04:51:35.975Z,0.77
2023-05-19T04:54:10.358Z,0.68
2023-05-19T04:56:44.149Z,1.23
2023-05-19T04:59:18.131Z,0.80
2023-05-19T05:01:51.174Z,0.70
2023-05-19T05:04:24.387Z,0.70
2023-05-19T05:06:57.201Z,0.73
2023-05-19T05:09:32.320Z,0.70
2023-05-19T05:12:08.648Z,0.80
2023-05-19T05:14:44.068Z,1.00
2023-05-19T05:17:17.906Z,0.68
2023-05-19T05:19:51.470Z,0.47
2023-05-19T05:22:24.889Z,0.82
2023-05-19T05:25:00.466Z,0.60
2023-05-19T05:27:36.693Z,0.63
2023-05-19T05:30:12.359Z,0.60
2023-05-19T05:32:45.864Z,0.50
2023-05-19T05:35:33.286Z,0.88
2023-05-19T05:38:07.156Z,0.85
2023-05-19T05:40:42.042Z,0.93
2023-05-19T05:43:15.807Z,0.52
2023-05-19T05:45:54.508Z,0.60
2023-05-19T05:48:28.132Z,0.85
2023-05-19T05:51:01.540Z,1.13
2023-05-19T05:53:43.374Z,1.30
2023-05-19T05:56:19.069Z,0.93
2023-05-19T05:58:57.100Z,0.82
2023-05-19T06:01:34.850Z,0.30
2023-05-19T06:04:10.072Z,0.85
2023-05-19T06:06:42.966Z,0.53
2023-05-19T06:09:18.970Z,0.35
2023-05-19T06:11:53.457Z,0.60
2023-05-19T06:14:26.674Z,0.85
2023-05-19T06:17:21.085Z,0.70
2023-05-19T06:19:54.241Z,0.53
2023-05-19T06:22:28.362Z,0.55
2023-05-19T06:25:02.585Z,0.77
2023-05-19T06:27:38.317Z,0.40
2023-05-19T06:30:12.418Z,0.73
2023-05-19T06:32:55.783Z,0.47
2023-05-19T06:35:30.272Z,0.50
2023-05-19T06:38:03.442Z,0.47
2023-05-19T06:40:37.168Z,0.80
2023-05-19T06:43:11.666Z,0.80
2023-05-19T06:46:07.179Z,0.40
2023-05-19T06:48:40.087Z,0.85
2023-05-19T06:51:15.992Z,0.88
2023-05-19T06:53:49.520Z,0.70
2023-05-19T06:56:23.386Z,0.85
2023-05-19T06:58:58.347Z,0.83
2023-05-19T07:01:37.442Z,1.10
2023-05-19T07:04:10.458Z,0.85
2023-05-19T07:06:43.456Z,0.50
2023-05-19T07:09:16.435Z,0.90
2023-05-19T07:11:50.388Z,0.90
2023-05-19T07:14:24.530Z,0.70
2023-05-19T07:16:58.024Z,0.60
2023-05-19T07:19:31.243Z,0.93
2023-05-19T07:22:10.723Z,1.42
2023-05-19T07:24:47.208Z,0.40
2023-05-19T07:27:20.541Z,0.68
2023-05-19T07:29:54.960Z,0.57
2023-05-19T07:32:28.017Z,0.47
2023-05-19T07:35:01.296Z,1.02
2023-05-19T07:37:39.137Z,0.30
2023-05-19T07:40:12.133Z,0.68
2023-05-19T07:42:44.999Z,0.93
2023-05-19T07:45:19.292Z,0.90
2023-05-19T07:47:54.414Z,0.55
2023-05-19T07:50:27.139Z,1.07
2023-05-19T07:53:00.120Z,0.98
2023-05-19T07:55:32.682Z,1.30
2023-05-19T07:58:05.510Z,0.47
2023-05-19T08:00:41.294Z,0.70
2023-05-19T08:03:14.301Z,0.40
2023-05-19T08:05:47.211Z,0.82
2023-05-19T08:08:20.324Z,0.70
2023-05-19T08:10:52.887Z,0.57
2023-05-19T08:13:26.157Z,1.00
2023-05-19T08:16:00.854Z,0.60
2023-05-19T08:18:33.609Z,1.25
2023-05-19T08:21:06.845Z,0.85
2023-05-19T08:23:39.671Z,0.68
2023-05-19T08:26:12.362Z,0.60
2023-05-19T08:28:45.414Z,1.07
2023-05-19T08:31:20.542Z,0.50
2023-05-19T08:33:53.603Z,0.68
2023-05-19T08:36:26.889Z,0.95
2023-05-19T08:38:59.465Z,0.88
2023-05-19T08:41:33.204Z,0.63
2023-05-19T08:44:06.641Z,1.40
2023-05-19T08:46:41.430Z,0.80
2023-05-19T08:49:16.872Z,0.90
2023-05-19T08:52:00.730Z,0.80
2023-05-19T08:54:41.642Z,1.00
2023-05-19T08:57:14.963Z,0.88
2023-05-19T08:59:49.320Z,0.77
2023-05-19T09:02:24.595Z,0.73
2023-05-19T09:04:57.824Z,1.17
2023-05-19T09:07:35.253Z,1.13
2023-05-19T09:10:09.297Z,0.95
2023-05-19T09:12:42.227Z,0.95
2023-05-19T09:15:18.818Z,1.00
2023-05-19T09:18:06.856Z,1.00
2023-05-19T09:20:41.158Z,1.43
2023-05-19T09:23:15.178Z,0.77
2023-05-19T09:25:49.084Z,0.90
2023-05-19T09:28:25.969Z,1.08
2023-05-19T09:31:00.558Z,1.63
2023-05-19T09:33:37.974Z,1.67
2023-05-19T09:36:13.948Z,0.88
2023-05-19T09:38:46.623Z,1.40
2023-05-19T09:41:20.321Z,1.45
2023-05-19T09:43:58.586Z,1.15
2023-05-19T09:46:32.742Z,1.00
2023-05-19T09:49:10.599Z,1.02
2023-05-19T09:52:04.792Z,1.42
2023-05-19T09:54:37.510Z,1.60
2023-05-19T09:57:11.044Z,1.38
2023-05-19T09:59:44.909Z,1.20
2023-05-19T10:02:21.560Z,1.95
2023-05-19T10:04:56.388Z,1.67
2023-05-19T10:07:31.172Z,1.58
2023-05-19T10:10:04.634Z,1.25
2023-05-19T10:12:39.513Z,1.37
2023-05-19T10:15:14.370Z,1.08
2023-05-19T10:17:47.588Z,1.77
2023-05-19T10:20:22.028Z,1.40
2023-05-19T10:22:54.702Z,1.17
2023-05-19T10:25:27.596Z,1.20
2023-05-19T10:28:06.248Z,1.83
2023-05-19T10:30:41.975Z,1.88
2023-05-19T10:33:20.059Z,1.00
2023-05-19T10:36:09.253Z,1.33
2023-05-19T10:38:48.751Z,1.60
2023-05-19T10:41:28.502Z,1.48
2023-05-19T10:44:20.500Z,1.95
2023-05-19T10:46:55.646Z,1.35
2023-05-19T10:49:29.455Z,1.60
2023-05-19T10:52:04.828Z,1.53
2023-05-19T10:54:46.963Z,0.73
2023-05-19T10:57:20.910Z,1.35
2023-05-19T10:59:57.531Z,1.50
2023-05-19T11:02:41.958Z,1.40
2023-05-19T11:05:18.320Z,1.27
2023-05-19T11:08:02.615Z,0.93
2023-05-19T11:10:36.047Z,1.08
2023-05-19T11:13:24.103Z,1.17
2023-05-19T11:15:56.739Z,1.15
2023-05-19T11:18:32.251Z,0.70
2023-05-19T11:21:05.096Z,1.05
2023-05-19T11:23:40.408Z,0.98
2023-05-19T11:26:13.616Z,1.25
2023-05-19T11:28:51.095Z,1.00
2023-05-19T11:31:25.472Z,1.13
2023-05-19T11:33:59.110Z,1.13
2023-05-19T11:36:32.259Z,1.05
2023-05-19T11:39:08.657Z,1.23
2023-05-19T11:41:41.815Z,1.38
2023-05-19T11:44:14.711Z,1.07
2023-05-19T11:46:47.868Z,1.30
2023-05-19T11:49:21.271Z,1.50
2023-05-19T11:51:54.906Z,1.25
2023-05-19T11:54:32.716Z,0.98
2023-05-19T11:57:06.250Z,1.40
2023-05-19T11:59:43.940Z,1.25
2023-05-19T12:02:19.417Z,0.90
2023-05-19T12:04:52.797Z,1.10
2023-05-19T12:07:26.320Z,1.25
2023-05-19T12:10:00.778Z,1.17
2023-05-19T12:12:39.086Z,1.42
2023-05-19T12:15:12.774Z,1.23
2023-05-19T12:17:46.762Z,1.15
2023-05-19T12:20:20.628Z,1.05
2023-05-19T12:22:55.747Z,1.17
2023-05-19T12:25:31.519Z,0.95
2023-05-19T12:28:05.044Z,1.27
2023-05-19T12:30:38.479Z,0.90
2023-05-19T12:33:12.211Z,0.80
2023-05-19T12:35:46.347Z,0.70
2023-05-19T12:38:21.040Z,1.30
2023-05-19T12:40:58.810Z,0.98
2023-05-19T12:43:33.945Z,1.02
2023-05-19T12:46:13.656Z,0.90
2023-05-19T12:48:47.743Z,1.03
2023-05-19T12:51:20.890Z,1.00
2023-05-19T12:53:54.797Z,0.82
2023-05-19T12:56:29.327Z,0.98
2023-05-19T12:59:02.747Z,1.10
2023-05-19T13:01:36.798Z,1.30
2023-05-19T13:04:10.293Z,0.90
2023-05-19T13:06:43.867Z,0.70
2023-05-19T13:09:18.492Z,1.15
2023-05-19T13:11:54.190Z,0.90
2023-05-19T13:14:27.078Z,1.20
2023-05-19T13:16:59.811Z,1.20
2023-05-19T13:19:33.307Z,0.90
2023-05-19T13:22:09.393Z,1.05
2023-05-19T13:24:45.005Z,1.20
2023-05-19T13:27:19.025Z,0.60
2023-05-19T13:30:01.376Z,1.27
2023-05-19T13:32:44.127Z,0.82
2023-05-19T13:35:17.490Z,1.02
2023-05-19T13:37:53.373Z,0.80
2023-05-19T13:40:28.677Z,0.90
2023-05-19T13:43:03.630Z,0.70
2023-05-19T13:45:37.438Z,1.10
2023-05-19T13:48:11.168Z,1.02
2023-05-19T13:50:46.844Z,0.63
2023-05-19T13:53:20.531Z,0.77
2023-05-19T13:55:55.649Z,0.88
2023-05-19T13:58:30.164Z,0.80
2023-05-19T14:01:20.980Z,0.55
2023-05-19T14:03:54.124Z,0.73
2023-05-19T14:06:28.047Z,0.83
2023-05-19T14:09:01.152Z,0.40
2023-05-19T14:11:34.606Z,0.47
2023-05-19T14:14:09.377Z,1.48
2023-05-19T14:16:44.129Z,1.05
2023-05-19T14:19:17.047Z,0.43
2023-05-19T14:21:53.863Z,0.60
2023-05-19T14:24:27.448Z,0.60
2023-05-19T14:27:00.882Z,0.65
2023-05-19T14:29:35.553Z,0.60
2023-05-19T14:32:08.972Z,0.70
2023-05-19T14:34:41.575Z,0.63
2023-05-19T14:37:14.502Z,0.63
2023-05-19T14:39:47.072Z,0.70
2023-05-19T14:42:20.312Z,0.50
2023-05-19T14:44:54.266Z,0.70
2023-05-19T14:47:27.472Z,0.70
2023-05-19T14:50:00.425Z,0.98
2023-05-19T14:52:33.816Z,0.60
2023-05-19T14:55:07.267Z,0.70
2023-05-19T14:57:40.187Z,0.67
2023-05-19T15:00:16.407Z,0.43
2023-05-19T15:02:50.388Z,0.88
2023-05-19T15:05:24.429Z,0.55
2023-05-19T15:07:57.516Z,1.00
2023-05-19T15:10:30.106Z,0.47
2023-05-19T15:13:04.900Z,0.30
2023-05-19T15:15:38.898Z,0.55
2023-05-19T15:18:13.304Z,0.30
2023-05-19T15:20:46.683Z,0.43
2023-05-19T15:23:19.491Z,0.70
2023-05-19T15:25:53.217Z,0.88
2023-05-19T15:28:27.425Z,0.70
2023-05-19T15:31:01.540Z,1.45
2023-05-19T15:33:35.227Z,0.73
2023-05-19T15:36:08.601Z,0.60
2023-05-19T15:38:42.750Z,0.60
2023-05-19T15:41:16.102Z,0.55
2023-05-19T15:43:49.443Z,0.60
2023-05-19T15:46:24.157Z,0.60
2023-05-19T15:48:56.937Z,0.60
2023-05-19T15:51:30.297Z,0.60
2023-05-19T15:54:02.810Z,0.80
2023-05-19T15:56:35.789Z,0.85
2023-05-19T15:59:08.395Z,0.70
2023-05-19T16:01:43.033Z,0.50
2023-05-19T16:04:17.242Z,0.30
2023-05-19T16:06:50.468Z,0.65
2023-05-19T16:09:24.084Z,0.40
2023-05-19T16:11:57.088Z,0.40
2023-05-19T16:14:33.436Z,0.50
2023-05-19T16:17:11.684Z,0.50
2023-05-19T16:19:46.522Z,0.52
2023-05-19T16:22:19.491Z,0.47
2023-05-19T16:24:53.302Z,0.50
2023-05-19T16:27:26.394Z,0.20
2023-05-19T16:30:01.240Z,0.52
2023-05-19T16:32:36.709Z,0.52
2023-05-19T16:35:10.419Z,0.60
2023-05-19T16:37:43.406Z,0.40
2023-05-19T16:40:16.415Z,0.50
2023-05-19T16:42:49.507Z,0.60
2023-05-19T16:45:22.887Z,0.57
2023-05-19T16:47:56.820Z,0.30
2023-05-19T16:50:29.897Z,0.40
2023-05-19T16:53:03.068Z,0.40
2023-05-19T16:55:36.442Z,0.30
2023-05-19T16:58:10.737Z,0.88
2023-05-19T17:00:44.415Z,0.75
2023-05-19T17:03:18.752Z,0.73
2023-05-19T17:05:52.911Z,0.37
2023-05-19T17:08:25.463Z,0.30
2023-05-19T17:10:58.837Z,0.47
2023-05-19T17:13:33.864Z,0.40
2023-05-19T17:16:08.211Z,0.47
2023-05-19T17:18:44.226Z,0.50
2023-05-19T17:21:18.147Z,0.50
2023-05-19T17:23:50.735Z,0.43
2023-05-19T17:26:24.048Z,0.60
2023-05-19T17:28:56.970Z,0.30
2023-05-19T17:31:29.935Z,0.40
2023-05-19T17:34:04.022Z,0.20
2023-05-19T17:36:37.152Z,0.45
2023-05-19T17:39:09.846Z,0.60
2023-05-19T17:41:43.303Z,0.47
2023-05-19T17:44:15.954Z,0.50
2023-05-19T17:46:52.159Z,0.30
2023-05-19T17:49:26.274Z,0.50
2023-05-19T17:52:00.166Z,0.52
2023-05-19T17:54:33.294Z,0.40
2023-05-19T17:57:11.654Z,1.00
2023-05-19T17:59:44.890Z,0.90
2023-05-19T18:02:18.791Z,0.65
2023-05-19T18:04:53.899Z,1.40
2023-05-19T18:07:29.378Z,1.33
2023-05-19T18:10:04.053Z,1.53
2023-05-19T18:12:37.774Z,0.80
2023-05-19T18:15:11.144Z,1.17
2023-05-19T18:17:44.844Z,1.60
2023-05-19T18:20:19.519Z,1.75
2023-05-19T18:22:52.457Z,1.20
2023-05-19T18:25:25.087Z,1.60
2023-05-19T18:27:58.250Z,1.67
2023-05-19T18:30:30.813Z,2.42
2023-05-19T18:33:04.771Z,4.05
2023-05-19T18:35:38.864Z,6.00
2023-05-19T18:38:12.093Z,5.60
2023-05-19T18:40:45.154Z,5.15
2023-05-19T18:43:19.243Z,3.88
2023-05-19T18:45:52.233Z,3.42
2023-05-19T18:48:28.326Z,2.27
2023-05-19T18:51:06.607Z,2.35
2023-05-19T18:53:39.835Z,1.70
2023-05-19T18:56:13.164Z,2.20
2023-05-19T18:58:46.317Z,1.42
2023-05-19T19:01:20.246Z,2.10
2023-05-19T19:03:52.960Z,1.25
2023-05-19T19:06:27.547Z,1.90
2023-05-19T19:09:00.698Z,1.60
2023-05-19T19:11:33.737Z,1.35
2023-05-19T19:14:06.373Z,1.70
2023-05-19T19:16:39.450Z,1.88
2023-05-19T19:19:12.483Z,2.28
2023-05-19T19:21:47.163Z,1.38
2023-05-19T19:24:19.788Z,3.13
2023-05-19T19:26:53.990Z,2.47
2023-05-19T19:29:27.124Z,1.45
2023-05-19T19:32:01.698Z,1.67
2023-05-19T19:34:34.460Z,2.47
2023-05-19T19:37:09.231Z,1.40
2023-05-19T19:39:42.338Z,1.57
2023-05-19T19:42:15.204Z,3.85
2023-05-19T19:44:54.996Z,3.55
2023-05-19T19:47:27.914Z,3.80
2023-05-19T19:50:02.789Z,4.55
2023-05-19T19:52:40.149Z,3.70
2023-05-19T19:55:13.108Z,4.90
2023-05-19T19:57:50.114Z,3.53
2023-05-19T20:00:23.050Z,2.55
2023-05-19T20:03:05.124Z,1.58
2023-05-19T20:05:39.657Z,1.73
2023-05-19T20:08:16.036Z,0.95
2023-05-19T20:10:49.733Z,1.25
2023-05-19T20:13:22.833Z,0.98
2023-05-19T20:15:55.528Z,1.42
2023-05-19T20:18:30.291Z,1.77
2023-05-19T20:21:02.916Z,2.55
2023-05-19T20:23:39.540Z,1.85
2023-05-19T20:26:13.478Z,1.88
2023-05-19T20:28:47.153Z,1.55
2023-05-19T20:31:21.591Z,1.90
2023-05-19T20:33:54.656Z,2.17
2023-05-19T20:36:27.600Z,1.05
2023-05-19T20:39:03.223Z,1.15
2023-05-19T20:41:35.936Z,1.27
2023-05-19T20:44:10.713Z,0.80
2023-05-19T20:46:43.845Z,1.13
2023-05-19T20:49:16.674Z,0.63
2023-05-19T20:51:50.098Z,0.57
2023-05-19T20:54:24.259Z,0.82
2023-05-19T20:56:57.187Z,0.50
2023-05-19T20:59:30.420Z,0.63
2023-05-19T21:02:03.021Z,0.30
2023-05-19T21:04:37.106Z,0.52
2023-05-19T21:07:09.717Z,0.52
2023-05-19T21:09:47.043Z,0.50
2023-05-19T21:12:23.962Z,1.05
2023-05-19T21:14:57.613Z,1.35
2023-05-19T21:17:30.363Z,0.80
2023-05-19T21:20:04.295Z,0.60
2023-05-19T21:22:37.900Z,0.50
2023-05-19T21:25:12.789Z,0.47
2023-05-19T21:27:46.694Z,0.30
2023-05-19T21:30:19.373Z,0.30
2023-05-19T21:32:52.758Z,0.40
2023-05-19T21:35:25.938Z,0.70
2023-05-19T21:38:00.583Z,0.95
2023-05-19T21:40:38.698Z,0.98
2023-05-19T21:43:12.816Z,0.65
2023-05-19T21:45:46.017Z,0.50
2023-05-19T21:48:18.690Z,0.40
2023-05-19T21:50:55.112Z,0.20
2023-05-19T21:53:28.036Z,0.43
2023-05-19T21:56:02.600Z,0.95
2023-05-19T21:58:35.416Z,0.50
2023-05-19T22:01:08.852Z,0.27
2023-05-19T22:03:42.148Z,0.65
2023-05-19T22:06:15.116Z,0.65
2023-05-19T22:08:48.098Z,1.02
2023-05-19T22:11:22.032Z,0.60
2023-05-19T22:13:55.294Z,0.30
2023-05-19T22:16:27.858Z,0.73
2023-05-19T22:19:01.235Z,0.38
2023-05-19T22:21:34.151Z,0.30
2023-05-19T22:24:07.078Z,0.40
2023-05-19T22:26:42.933Z,0.87
2023-05-19T22:29:18.972Z,0.20
2023-05-19T22:31:51.528Z,1.13
2023-05-19T22:34:24.538Z,0.75
2023-05-19T22:36:57.108Z,0.60
2023-05-19T22:39:30.266Z,0.37
2023-05-19T22:42:04.394Z,0.40
2023-05-19T22:44:37.726Z,0.38
2023-05-19T22:47:13.818Z,0.77
2023-05-19T22:49:47.291Z,0.43
2023-05-19T22:52:19.910Z,0.70
2023-05-19T22:54:53.260Z,0.60
2023-05-19T22:57:27.169Z,1.13
2023-05-19T23:00:00.354Z,0.93
2023-05-19T23:02:33.294Z,0.63
2023-05-19T23:05:07.651Z,0.70
2023-05-19T23:07:40.653Z,0.45
2023-05-19T23:10:13.907Z,0.60
2023-05-19T23:12:48.939Z,0.50
2023-05-19T23:15:22.140Z,0.38
2023-05-19T23:17:54.879Z,0.50
2023-05-19T23:20:27.509Z,0.30
2023-05-19T23:23:00.468Z,0.40
2023-05-19T23:25:33.939Z,0.80
2023-05-19T23:28:10.391Z,0.38
2023-05-19T23:30:43.290Z,0.60
2023-05-19T23:33:16.565Z,0.65
2023-05-19T23:35:50.029Z,0.45
2023-05-19T23:38:22.867Z,0.60
2023-05-19T23:40:56.083Z,0.47
2023-05-19T23:43:30.395Z,0.43
2023-05-19T23:46:03.696Z,0.88
2023-05-19T23:48:37.177Z,0.65
2023-05-19T23:51:10.077Z,0.60
2023-05-19T23:53:42.801Z,0.73
2023-05-19T23:56:15.726Z,0.63
2023-05-19T23:58:50.276Z,0.68
